Time;durP1;ratioP1;P1;durP2;ratioP2;P2;SDS_P1;SDS_P2;PMS_P1;PMS_P2;Temp;Humidity;BMP_temperature;BMP_pressure;BME280_temperature;BME280_humidity;BME280_pressure;Samples;Min_cycle;Max_cycle;Signal;HPM_P1;HPM_P2
2024/02/29 00:01:57;;;;;;;18.50;10.20;;;;;;;4.33;90.56;101471.38;111194;1211;97796;-66
2024/02/29 00:04:28;;;;;;;20.70;9.90;;;;;;;4.33;90.55;101472.26;110885;1209;138483;-64
2024/02/29 00:06:53;;;;;;;19.90;10.30;;;;;;;4.36;90.50;101475.42;111119;1209;107403;-64
2024/02/29 00:09:19;;;;;;;18.00;9.80;;;;;;;4.38;90.45;101475.77;110844;1207;139196;-65
2024/02/29 00:11:44;;;;;;;17.80;9.60;;;;;;;4.38;90.30;101473.48;111115;1206;96140;-65
2024/02/29 00:14:12;;;;;;;21.10;10.20;;;;;;;4.38;90.54;101476.14;111026;1209;138648;-65
2024/02/29 00:16:43;;;;;;;18.90;9.50;;;;;;;4.41;90.44;101480.54;111069;1212;97326;-65
2024/02/29 00:19:12;;;;;;;19.20;10.90;;;;;;;4.42;90.14;101483.90;110988;1209;97562;-66
2024/02/29 00:21:38;;;;;;;20.00;10.50;;;;;;;4.44;90.54;101485.66;111007;1209;138375;-65
2024/02/29 00:24:06;;;;;;;20.30;9.50;;;;;;;4.47;90.42;101489.89;111099;1209;100790;-67
2024/02/29 00:26:31;;;;;;;19.70;10.30;;;;;;;4.48;90.37;101488.30;110820;1209;139449;-65
2024/02/29 00:28:56;;;;;;;20.70;9.60;;;;;;;4.49;90.22;101486.69;111205;1209;96373;-64
2024/02/29 00:31:24;;;;;;;18.80;10.10;;;;;;;4.49;90.24;101479.61;111109;1209;97666;-65
2024/02/29 00:33:50;;;;;;;19.60;9.40;;;;;;;4.48;90.28;101480.52;110973;1211;139005;-65
2024/02/29 00:36:15;;;;;;;16.70;9.90;;;;;;;4.43;90.15;101473.45;111066;1207;97612;-64
2024/02/29 00:38:41;;;;;;;16.10;10.50;;;;;;;4.45;90.10;101484.41;110921;1207;139333;-64
2024/02/29 00:41:07;;;;;;;18.80;9.50;;;;;;;4.46;90.17;101487.23;111048;1211;97632;-65
2024/02/29 00:43:32;;;;;;;18.90;10.30;;;;;;;4.46;90.15;101488.30;111156;1209;97677;-65
2024/02/29 00:45:57;;;;;;;20.00;9.50;;;;;;;4.47;90.12;101489.71;111016;1209;138929;-65
2024/02/29 00:48:29;;;;;;;15.70;9.30;;;;;;;4.46;90.00;101487.77;111064;1212;98859;-65
2024/02/29 00:50:55;;;;;;;19.50;10.00;;;;;;;4.46;90.19;101483.35;111170;1211;138350;-65
2024/02/29 00:53:20;;;;;;;21.80;10.20;;;;;;;4.49;90.05;101485.63;111039;1209;97600;-64
2024/02/29 00:55:45;;;;;;;23.70;11.10;;;;;;;4.51;90.14;101483.85;111165;1212;98132;-64
2024/02/29 00:58:10;;;;;;;19.20;10.10;;;;;;;4.54;90.14;101487.91;110919;1210;139564;-65
2024/02/29 01:00:36;;;;;;;21.40;10.60;;;;;;;4.53;90.01;101492.16;111224;1208;98284;-65
2024/02/29 01:03:02;;;;;;;16.90;9.50;;;;;;;4.50;89.91;101493.95;110950;1207;139318;-65
2024/02/29 01:05:28;;;;;;;21.20;10.70;;;;;;;4.47;89.85;101488.48;111160;1211;99343;-65
2024/02/29 01:07:53;;;;;;;18.10;9.50;;;;;;;4.44;89.81;101487.96;111176;1211;98876;-65
2024/02/29 01:10:19;;;;;;;17.00;9.50;;;;;;;4.40;89.56;101486.73;110791;1211;138142;-65
2024/02/29 01:12:44;;;;;;;19.10;9.40;;;;;;;4.31;89.57;101483.77;111059;1211;97636;-65
2024/02/29 01:15:11;;;;;;;18.80;9.90;;;;;;;4.27;89.60;101484.85;111014;1206;138736;-65
2024/02/29 01:17:40;;;;;;;19.00;10.20;;;;;;;4.29;89.78;101484.13;110997;1212;97588;-65
2024/02/29 01:20:06;;;;;;;18.80;10.10;;;;;;;4.32;89.46;101483.59;110474;1211;139602;-65
2024/02/29 01:22:31;;;;;;;18.00;9.20;;;;;;;4.32;89.59;101478.11;110508;1211;97676;-65
2024/02/29 01:24:57;;;;;;;17.10;9.60;;;;;;;4.33;89.52;101474.56;110695;1211;98825;-64
2024/02/29 01:27:24;;;;;;;20.00;9.90;;;;;;;4.34;89.61;101473.50;110513;1211;138543;-65
2024/02/29 01:29:49;;;;;;;23.90;10.90;;;;;;;4.34;89.59;101471.73;110792;1211;96447;-65
2024/02/29 01:32:15;;;;;;;20.90;11.20;;;;;;;4.30;89.46;101468.38;110772;1208;139750;-65
2024/02/29 01:34:41;;;;;;;22.70;11.00;;;;;;;4.29;89.24;101464.67;110530;1209;98049;-65
2024/02/29 01:37:06;;;;;;;24.60;12.10;;;;;;;4.25;89.20;101460.98;110871;1211;97703;-65
2024/02/29 01:39:33;;;;;;;22.30;11.10;;;;;;;4.26;89.33;101460.27;111074;1211;138798;-64
2024/02/29 01:42:01;;;;;;;21.40;10.60;;;;;;;4.27;89.47;101459.55;111167;1210;107816;-65
2024/02/29 01:44:28;;;;;;;23.40;12.00;;;;;;;4.31;89.33;101454.94;111077;1208;140227;-65
2024/02/29 01:46:54;;;;;;;23.90;11.60;;;;;;;4.35;89.25;101456.67;111072;1211;98094;-65
2024/02/29 01:49:21;;;;;;;24.10;11.70;;;;;;;4.34;89.28;101452.09;111012;1208;96316;-64
2024/02/29 01:51:49;;;;;;;25.90;12.60;;;;;;;4.30;89.15;101451.05;110940;1211;138518;-65
2024/02/29 01:54:14;;;;;;;32.30;14.40;;;;;;;4.29;89.31;101452.82;111015;1208;97591;-65
2024/02/29 01:56:40;;;;;;;28.40;13.60;;;;;;;4.29;89.06;101455.65;111091;1211;139328;-64
2024/02/29 01:59:06;;;;;;;26.80;12.70;;;;;;;4.27;89.27;101452.30;111067;1209;97548;-65
2024/02/29 02:01:32;;;;;;;30.60;14.10;;;;;;;4.30;89.29;101449.11;111204;1211;97633;-64
2024/02/29 02:03:59;;;;;;;32.20;14.90;;;;;;;4.32;89.12;101443.61;111001;1211;138665;-64
2024/02/29 02:06:24;;;;;;;31.90;15.00;;;;;;;4.32;89.23;101437.41;111101;1211;97661;-64
2024/02/29 02:08:50;;;;;;;30.10;15.20;;;;;;;4.35;89.29;101439.16;111016;1206;138661;-64
2024/02/29 02:11:16;;;;;;;34.40;16.50;;;;;;;4.35;89.32;101435.09;111048;1209;97817;-65
2024/02/29 02:13:41;;;;;;;43.30;16.70;;;;;;;4.35;89.30;101429.79;111055;1209;97600;-65
2024/02/29 02:16:08;;;;;;;29.80;15.00;;;;;;;4.35;89.17;101428.73;110847;1208;138558;-64
2024/02/29 02:18:34;;;;;;;33.90;15.10;;;;;;;4.37;89.07;101430.66;111187;1209;98091;-65
2024/02/29 02:20:59;;;;;;;33.90;14.90;;;;;;;4.37;89.20;101425.89;110899;1209;139167;-65
2024/02/29 02:23:25;;;;;;;29.50;14.30;;;;;;;4.39;89.16;101428.17;111001;1209;97685;-65
2024/02/29 02:25:50;;;;;;;27.50;14.10;;;;;;;4.40;89.22;101423.04;110979;1212;98014;-65
2024/02/29 02:28:17;;;;;;;29.80;13.40;;;;;;;4.41;89.24;101418.43;110830;1208;138585;-65
2024/02/29 02:30:42;;;;;;;31.20;14.20;;;;;;;4.40;89.12;101417.91;110695;1209;107468;-65
2024/02/29 02:33:09;;;;;;;30.90;14.60;;;;;;;4.40;89.04;101413.13;110410;1209;139380;-65
2024/02/29 02:35:35;;;;;;;31.00;14.00;;;;;;;4.41;89.30;101410.81;111085;1209;95060;-65
2024/02/29 02:38:03;;;;;;;31.40;15.20;;;;;;;4.42;89.07;101412.06;111197;1211;97725;-65
2024/02/29 02:40:29;;;;;;;30.40;14.00;;;;;;;4.42;89.10;101406.73;110850;1211;138319;-65
2024/02/29 02:42:54;;;;;;;28.70;14.10;;;;;;;4.43;89.10;101408.52;111039;1209;98373;-65
2024/02/29 02:45:19;;;;;;;27.60;12.70;;;;;;;4.43;89.16;101407.80;110961;1209;138609;-65
2024/02/29 02:47:44;;;;;;;31.80;13.90;;;;;;;4.43;89.14;101406.02;111087;1209;96856;-65
2024/02/29 02:50:10;;;;;;;30.40;13.90;;;;;;;4.44;89.10;101401.77;110973;1208;140698;-67
2024/02/29 02:52:36;;;;;;;29.50;14.20;;;;;;;4.43;89.10;101393.12;111113;1208;97582;-65
2024/02/29 02:55:01;;;;;;;28.80;13.30;;;;;;;4.43;89.03;101396.83;111109;1211;97581;-65
2024/02/29 02:57:27;;;;;;;29.30;13.80;;;;;;;4.41;88.81;101390.66;110929;1206;138716;-65
2024/02/29 02:59:52;;;;;;;28.80;13.80;;;;;;;4.37;88.77;101385.55;111106;1207;96012;-65
2024/02/29 03:02:21;;;;;;;29.10;14.30;;;;;;;4.38;88.85;101385.89;110937;1210;139264;-65
2024/02/29 03:04:47;;;;;;;26.70;13.10;;;;;;;4.38;88.74;101388.90;111146;1209;95831;-64
2024/02/29 03:07:12;;;;;;;27.90;14.00;;;;;;;4.39;88.85;101390.84;111051;1211;98027;-65
2024/02/29 03:09:38;;;;;;;25.40;13.10;;;;;;;4.38;88.74;101392.61;110970;1208;138615;-65
2024/02/29 03:12:03;;;;;;;24.40;12.00;;;;;;;4.36;88.81;101388.55;111061;1208;97637;-67
2024/02/29 03:14:29;;;;;;;29.20;13.80;;;;;;;4.38;88.84;101385.89;111109;1208;138631;-65
2024/02/29 03:16:55;;;;;;;25.70;12.20;;;;;;;4.38;88.63;101380.23;111067;1211;107990;-64
2024/02/29 03:19:20;;;;;;;26.70;13.20;;;;;;;4.37;88.70;101381.30;110962;1209;97701;-65
2024/02/29 03:21:45;;;;;;;25.30;12.90;;;;;;;4.36;88.53;101384.31;110994;1211;138763;-65
2024/02/29 03:24:10;;;;;;;30.60;13.60;;;;;;;4.35;88.58;101388.21;110956;1210;98272;-65
2024/02/29 03:26:36;;;;;;;25.40;11.80;;;;;;;4.35;88.70;101387.33;110866;1208;138673;-65
2024/02/29 03:29:01;;;;;;;25.70;12.80;;;;;;;4.37;88.55;101390.15;111045;1211;97675;-65
2024/02/29 03:31:27;;;;;;;24.10;12.70;;;;;;;4.35;88.52;101385.38;110961;1207;97603;-65
2024/02/29 03:33:53;;;;;;;26.70;11.80;;;;;;;4.36;88.68;101382.38;111056;1211;138757;-65
2024/02/29 03:36:18;;;;;;;27.10;13.30;;;;;;;4.35;88.62;101382.02;110957;1209;97709;-64
2024/02/29 03:38:44;;;;;;;30.90;14.10;;;;;;;4.33;88.64;101383.27;110998;1211;138624;-64
2024/02/29 03:41:09;;;;;;;26.90;13.70;;;;;;;4.32;88.41;101388.40;111082;1209;97603;-65
2024/02/29 03:43:34;;;;;;;28.40;13.20;;;;;;;4.31;88.37;101383.80;111072;1208;97704;-65
2024/02/29 03:46:01;;;;;;;27.80;13.50;;;;;;;4.33;88.51;101379.20;111050;1208;138459;-64
2024/02/29 03:48:27;;;;;;;25.90;12.70;;;;;;;4.34;88.52;101378.14;111123;1211;111029;-65
2024/02/29 03:50:52;;;;;;;24.40;12.40;;;;;;;4.34;88.34;101376.19;110996;1211;139254;-64
2024/02/29 03:53:18;;;;;;;25.30;12.70;;;;;;;4.32;88.34;101372.65;110941;1207;97610;-65
2024/02/29 03:55:45;;;;;;;26.10;13.10;;;;;;;4.31;88.34;101368.23;111100;1211;98154;-65
2024/02/29 03:58:11;;;;;;;25.30;12.10;;;;;;;4.32;88.28;101365.40;110908;1211;139242;-64
2024/02/29 04:00:36;;;;;;;27.20;12.80;;;;;;;4.32;88.46;101362.58;110971;1211;97688;-65
2024/02/29 04:03:02;;;;;;;24.30;12.10;;;;;;;4.34;88.40;101359.55;111062;1211;140634;-65
2024/02/29 04:05:27;;;;;;;25.00;12.60;;;;;;;4.35;88.38;101362.90;111142;1209;101788;-65
2024/02/29 04:08:00;;;;;;;30.60;13.70;;;;;;;4.34;88.17;101359.73;111146;1209;98272;-65
2024/02/29 04:10:27;;;;;;;27.40;12.80;;;;;;;4.32;88.38;101361.69;110973;1209;139216;-65
2024/02/29 04:12:52;;;;;;;26.70;13.40;;;;;;;4.31;88.23;101361.34;111072;1210;97735;-65
2024/02/29 04:15:17;;;;;;;24.70;13.00;;;;;;;4.32;88.19;101363.28;110906;1209;138412;-65
2024/02/29 04:17:43;;;;;;;25.10;13.20;;;;;;;4.30;88.41;101361.88;111166;1210;97704;-65
2024/02/29 04:20:08;;;;;;;26.70;13.20;;;;;;;4.32;88.38;101362.75;111058;1211;97690;-65
2024/02/29 04:22:33;;;;;;;26.30;13.20;;;;;;;4.33;88.37;101358.68;111010;1211;138989;-65
2024/02/29 04:24:59;;;;;;;25.20;11.30;;;;;;;4.31;88.16;101360.46;111139;1209;97602;-65
2024/02/29 04:27:24;;;;;;;24.10;12.00;;;;;;;4.32;88.34;101358.86;110912;1210;139143;-65
2024/02/29 04:29:49;;;;;;;24.50;11.40;;;;;;;4.36;88.40;101357.95;111229;1211;97591;-65
2024/02/29 04:32:14;;;;;;;25.30;12.90;;;;;;;4.37;88.44;101358.30;110994;1207;97708;-65
2024/02/29 04:34:41;;;;;;;27.50;13.10;;;;;;;4.35;88.14;101358.84;111014;1209;138431;-65
2024/02/29 04:37:07;;;;;;;26.80;12.60;;;;;;;4.35;88.19;101360.08;110909;1209;100011;-65
2024/02/29 04:39:32;;;;;;;25.70;12.20;;;;;;;4.33;87.99;101356.73;110793;1211;138755;-65
2024/02/29 04:41:57;;;;;;;22.60;11.80;;;;;;;4.33;88.18;101353.90;111191;1208;97669;-65
2024/02/29 04:44:22;;;;;;;29.90;13.60;;;;;;;4.34;88.13;101357.08;110996;1209;162884;-64
2024/02/29 04:46:48;;;;;;;22.70;11.50;;;;;;;4.31;87.90;101356.56;111135;1207;97586;-65
2024/02/29 04:49:13;;;;;;;26.30;12.30;;;;;;;4.25;87.91;101358.19;111022;1209;98024;-66
2024/02/29 04:51:38;;;;;;;22.50;10.60;;;;;;;4.25;88.04;101358.90;110955;1206;139035;-65
2024/02/29 04:54:04;;;;;;;22.50;11.20;;;;;;;4.28;88.00;101360.48;111174;1209;97641;-65
2024/02/29 04:56:29;;;;;;;24.00;10.60;;;;;;;4.28;87.95;101353.58;110900;1209;138731;-66
2024/02/29 04:58:55;;;;;;;19.60;9.90;;;;;;;4.28;87.99;101352.52;111180;1211;97678;-65
2024/02/29 05:01:20;;;;;;;24.60;11.40;;;;;;;4.25;87.71;101354.47;111066;1208;109874;-65
2024/02/29 05:03:45;;;;;;;20.40;10.40;;;;;;;4.25;88.05;101358.37;110965;1206;139119;-64
2024/02/29 05:06:15;;;;;;;18.60;9.10;;;;;;;4.25;87.87;101362.09;111070;1211;97596;-65
2024/02/29 05:08:41;;;;;;;21.00;11.00;;;;;;;4.22;87.84;101362.81;111012;1209;138640;-65
2024/02/29 05:11:10;;;;;;;17.70;9.50;;;;;;;4.22;87.83;101361.21;110944;1209;97670;-65
2024/02/29 05:13:35;;;;;;;21.50;9.70;;;;;;;4.24;88.04;101357.14;111017;1211;97668;-65
2024/02/29 05:16:04;;;;;;;23.50;10.30;;;;;;;4.26;87.98;101360.14;111030;1211;139142;-65
2024/02/29 05:18:29;;;;;;;21.50;11.10;;;;;;;4.24;87.82;101366.69;111022;1209;97688;-65
2024/02/29 05:20:55;;;;;;;21.60;10.10;;;;;;;4.21;87.86;101366.36;110975;1209;138890;-65
2024/02/29 05:23:20;;;;;;;20.70;10.80;;;;;;;4.23;88.04;101365.64;111079;1209;97593;-65
2024/02/29 05:25:46;;;;;;;18.60;9.90;;;;;;;4.23;87.69;101362.27;111080;1209;97577;-65
2024/02/29 05:28:11;;;;;;;21.20;10.80;;;;;;;4.22;87.84;101364.75;110912;1211;138524;-65
2024/02/29 05:30:36;;;;;;;21.00;10.20;;;;;;;4.21;87.75;101368.48;111082;1209;98043;-65
2024/02/29 05:33:02;;;;;;;20.90;10.50;;;;;;;4.21;87.75;101366.70;110974;1209;138901;-65
2024/02/29 05:35:27;;;;;;;22.30;10.40;;;;;;;4.20;87.80;101358.94;111091;1207;97659;-65
2024/02/29 05:37:52;;;;;;;16.70;9.30;;;;;;;4.22;88.01;101364.94;111110;1208;97591;-65
2024/02/29 05:40:17;;;;;;;20.00;10.20;;;;;;;4.23;87.66;101365.81;110776;1211;139390;-65
2024/02/29 05:42:43;;;;;;;21.80;11.00;;;;;;;4.21;87.81;101369.18;110445;1209;100516;-65
2024/02/29 05:45:10;;;;;;;25.40;11.30;;;;;;;4.22;87.56;101365.98;110447;1211;139217;-65
2024/02/29 05:47:36;;;;;;;22.40;11.00;;;;;;;4.21;87.70;101360.69;110466;1208;100063;-65
2024/02/29 05:50:01;;;;;;;22.20;10.80;;;;;;;4.21;87.69;101366.17;110649;1211;97681;-65
2024/02/29 05:52:26;;;;;;;20.90;10.20;;;;;;;4.23;87.83;101362.80;110392;1211;138547;-65
2024/02/29 05:54:51;;;;;;;25.10;11.90;;;;;;;4.26;87.73;101368.09;110572;1211;97815;-65
2024/02/29 05:57:17;;;;;;;21.50;10.70;;;;;;;4.21;87.70;101364.05;110712;1211;139131;-65
2024/02/29 05:59:42;;;;;;;20.70;10.40;;;;;;;4.22;87.45;101364.23;111073;1212;97673;-65
2024/02/29 06:02:09;;;;;;;20.10;10.80;;;;;;;4.22;87.64;101363.15;111011;1207;97590;-65
2024/02/29 06:04:35;;;;;;;24.00;11.30;;;;;;;4.22;87.70;101360.69;110902;1208;138529;-65
2024/02/29 06:07:00;;;;;;;23.30;11.60;;;;;;;4.23;87.76;101359.08;111077;1209;97680;-66
2024/02/29 06:09:25;;;;;;;26.00;12.70;;;;;;;4.25;87.66;101364.03;110939;1210;138595;-66
2024/02/29 06:11:50;;;;;;;23.50;12.20;;;;;;;4.30;88.01;101367.19;111061;1211;97570;-65
2024/02/29 06:14:17;;;;;;;29.10;11.90;;;;;;;4.31;87.83;101366.46;111089;1209;99068;-65
2024/02/29 06:16:42;;;;;;;24.70;12.20;;;;;;;4.33;87.83;101369.47;110865;1209;139698;-65
2024/02/29 06:19:08;;;;;;;27.90;12.30;;;;;;;4.33;87.95;101367.88;111041;1209;97863;-64
2024/02/29 06:21:33;;;;;;;23.50;11.70;;;;;;;4.33;87.92;101364.87;111073;1209;138409;-65
2024/02/29 06:23:59;;;;;;;29.70;13.60;;;;;;;4.33;87.91;101362.56;111128;1209;97643;-64
2024/02/29 06:26:24;;;;;;;34.40;13.20;;;;;;;4.35;87.97;101362.20;110950;1208;139705;-65
2024/02/29 06:28:49;;;;;;;28.70;13.50;;;;;;;4.38;88.07;101361.30;111091;1210;97798;-64
2024/02/29 06:31:17;;;;;;;27.50;13.60;;;;;;;4.42;88.15;101361.63;110979;1209;96299;-65
2024/02/29 06:33:42;;;;;;;30.00;13.20;;;;;;;4.42;87.95;101360.38;111058;1211;138591;-65
2024/02/29 06:36:07;;;;;;;26.70;12.40;;;;;;;4.44;88.01;101363.73;111013;1208;97542;-65
2024/02/29 06:38:34;;;;;;;29.30;13.50;;;;;;;4.46;88.11;101361.95;110942;1211;139286;-65
2024/02/29 06:40:59;;;;;;;37.90;14.40;;;;;;;4.46;88.05;101359.64;110984;1211;97565;-64
2024/02/29 06:43:24;;;;;;;33.10;14.10;;;;;;;4.48;88.03;101359.98;110502;1211;98117;-65
2024/02/29 06:45:50;;;;;;;31.50;14.00;;;;;;;4.48;88.02;101354.51;110493;1211;138725;-66
2024/02/29 06:48:17;;;;;;;31.80;14.60;;;;;;;4.48;88.15;101354.33;110916;1209;97536;-65
2024/02/29 06:50:43;;;;;;;37.30;14.40;;;;;;;4.48;88.01;101352.38;111186;1210;139879;-65
2024/02/29 06:53:12;;;;;;;34.90;15.00;;;;;;;4.48;88.07;101353.44;111057;1209;108023;-67
2024/02/29 06:55:38;;;;;;;35.00;13.40;;;;;;;4.52;88.27;101351.48;111145;1209;97636;-68
2024/02/29 06:58:05;;;;;;;32.40;14.10;;;;;;;4.54;88.14;101348.61;110968;1210;139901;-68
2024/02/29 07:00:30;;;;;;;30.40;12.70;;;;;;;4.56;88.12;101348.08;110973;1211;97626;-68
2024/02/29 07:02:56;;;;;;;24.40;12.50;;;;;;;4.58;88.25;101347.88;110996;1211;139332;-68
2024/02/29 07:05:21;;;;;;;25.40;11.70;;;;;;;4.59;88.23;101346.98;111082;1209;96611;-67
2024/02/29 07:07:46;;;;;;;28.20;13.10;;;;;;;4.62;88.24;101345.73;111169;1208;99145;-68
2024/02/29 07:10:12;;;;;;;29.20;13.40;;;;;;;4.64;88.49;101341.27;110951;1211;138694;-68
2024/02/29 07:12:38;;;;;;;28.30;12.50;;;;;;;4.67;88.42;101344.27;111133;1208;97552;-68
2024/02/29 07:15:03;;;;;;;28.20;13.00;;;;;;;4.70;88.25;101342.66;111096;1211;138737;-68
2024/02/29 07:17:29;;;;;;;26.90;12.50;;;;;;;4.72;88.38;101342.81;111131;1208;97534;-67
2024/02/29 07:19:55;;;;;;;30.00;14.70;;;;;;;4.73;88.31;101341.03;111136;1211;97675;-70
2024/02/29 07:22:20;;;;;;;31.10;13.60;;;;;;;4.75;88.43;101344.39;110947;1209;138761;-69
2024/02/29 07:24:45;;;;;;;26.40;12.00;;;;;;;4.75;88.42;101343.67;111079;1211;97648;-69
2024/02/29 07:27:13;;;;;;;27.20;11.30;;;;;;;4.77;88.53;101347.90;110980;1211;138692;-69
2024/02/29 07:29:38;;;;;;;23.10;11.10;;;;;;;4.79;88.48;101347.35;111124;1211;107190;-67
2024/02/29 07:32:05;;;;;;;27.20;13.00;;;;;;;4.80;88.33;101344.52;111097;1209;97568;-70
2024/02/29 07:34:31;;;;;;;25.80;11.50;;;;;;;4.81;88.47;101338.85;111007;1209;138857;-70
2024/02/29 07:36:56;;;;;;;27.00;12.90;;;;;;;4.80;88.46;101337.44;111228;1206;97569;-70
2024/02/29 07:39:23;;;;;;;28.50;12.10;;;;;;;4.82;88.57;101332.81;110591;1209;139027;-70
2024/02/29 07:41:49;;;;;;;38.00;15.30;;;;;;;4.85;88.63;101332.96;110944;1209;97619;-70
2024/02/29 07:44:14;;;;;;;25.50;11.60;;;;;;;4.89;88.69;101335.93;111049;1211;98253;-69
2024/02/29 07:46:39;;;;;;;26.20;13.40;;;;;;;4.94;88.64;101341.55;110973;1208;139514;-71
2024/02/29 07:49:05;;;;;;;27.10;13.00;;;;;;;4.96;88.68;101339.41;111093;1208;97681;-70
2024/02/29 07:51:31;;;;;;;27.80;12.70;;;;;;;4.99;88.81;101336.03;110967;1209;138656;-71
2024/02/29 07:53:56;;;;;;;27.50;13.50;;;;;;;5.03;88.88;101333.86;111040;1207;97597;-69
2024/02/29 07:56:21;;;;;;;28.80;11.70;;;;;;;5.08;88.86;101337.35;111047;1208;97783;-68
2024/02/29 07:58:47;;;;;;;29.40;12.50;;;;;;;5.09;88.75;101339.99;111023;1209;96851;-69
2024/02/29 08:01:13;;;;;;;30.90;12.60;;;;;;;5.13;88.82;101340.85;111056;1208;97601;-68
2024/02/29 08:03:38;;;;;;;28.70;12.70;;;;;;;5.15;88.85;101336.58;110962;1211;138664;-68
2024/02/29 08:06:06;;;;;;;33.10;13.70;;;;;;;5.17;89.01;101336.91;110977;1211;97692;-72
2024/02/29 08:08:31;;;;;;;29.60;12.40;;;;;;;5.20;88.93;101331.02;110882;1208;139254;-71
2024/02/29 08:10:57;;;;;;;29.60;13.40;;;;;;;5.22;88.82;101326.89;111009;1211;97673;-71
2024/02/29 08:13:22;;;;;;;28.00;12.40;;;;;;;5.25;88.91;101327.77;110819;1209;97574;-71
2024/02/29 08:15:47;;;;;;;32.90;13.20;;;;;;;5.28;88.98;101326.13;110955;1209;138639;-71
2024/02/29 08:18:13;;;;;;;29.90;13.00;;;;;;;5.31;89.01;101329.11;111029;1209;97467;-70
2024/02/29 08:20:40;;;;;;;25.80;12.30;;;;;;;5.35;89.13;101328.36;110968;1209;141193;-70
2024/02/29 08:23:05;;;;;;;24.60;12.30;;;;;;;5.38;89.27;101326.55;111131;1208;96281;-70
2024/02/29 08:25:31;;;;;;;24.80;11.60;;;;;;;5.40;89.20;101326.16;111196;1211;97668;-69
2024/02/29 08:27:56;;;;;;;26.20;12.20;;;;;;;5.43;89.12;101324.01;111047;1209;138518;-69
2024/02/29 08:30:23;;;;;;;26.40;11.70;;;;;;;5.49;89.39;101323.95;111134;1211;97892;-69
2024/02/29 08:32:48;;;;;;;21.00;10.50;;;;;;;5.51;89.20;101327.29;110951;1209;138983;-70
2024/02/29 08:35:14;;;;;;;26.90;11.20;;;;;;;5.53;89.19;101324.42;111074;1209;97649;-70
2024/02/29 08:37:42;;;;;;;26.30;12.40;;;;;;;5.56;89.36;101322.62;111365;1209;97689;-72
2024/02/29 08:40:08;;;;;;;25.50;11.30;;;;;;;5.61;89.42;101320.95;110822;1209;138735;-73
2024/02/29 08:42:34;;;;;;;26.80;12.30;;;;;;;5.66;89.47;101313.10;111061;1211;97689;-70
2024/02/29 08:44:59;;;;;;;22.00;10.40;;;;;;;5.70;89.50;101307.20;111036;1209;139372;-70
2024/02/29 08:47:25;;;;;;;22.00;10.50;;;;;;;5.72;89.51;101306.82;110817;1211;97808;-70
2024/02/29 08:49:53;;;;;;;33.30;12.40;;;;;;;5.75;89.64;101299.86;111014;1209;97612;-70
2024/02/29 08:52:18;;;;;;;20.60;10.20;;;;;;;5.79;89.61;101301.05;110960;1211;139134;-69
2024/02/29 08:54:44;;;;;;;22.70;11.10;;;;;;;5.83;89.74;101296.02;111158;1209;98371;-69
2024/02/29 08:57:09;;;;;;;22.20;11.00;;;;;;;5.86;89.68;101297.40;110842;1207;138767;-70
2024/02/29 08:59:34;;;;;;;23.80;10.60;;;;;;;5.89;89.62;101296.50;110936;1208;97575;-70
2024/02/29 09:02:02;;;;;;;26.20;10.60;;;;;;;5.93;89.74;101294.69;111148;1209;97738;-70
2024/02/29 09:04:28;;;;;;;26.20;12.10;;;;;;;5.95;89.64;101295.38;110914;1210;139503;-71
2024/02/29 09:06:53;;;;;;;26.10;11.80;;;;;;;5.93;89.55;101294.68;111151;1211;97705;-69
2024/02/29 09:09:18;;;;;;;28.70;11.10;;;;;;;5.96;89.73;101299.79;111078;1207;139201;-70
2024/02/29 09:11:44;;;;;;;32.10;11.80;;;;;;;5.97;89.74;101300.83;111171;1209;97705;-71
2024/02/29 09:14:09;;;;;;;26.20;11.30;;;;;;;5.99;89.76;101299.39;111113;1208;97631;-70
2024/02/29 09:16:35;;;;;;;32.60;12.30;;;;;;;6.01;89.84;101296.16;110979;1211;139462;-70
2024/02/29 09:19:01;;;;;;;24.40;11.20;;;;;;;6.05;89.82;101294.52;111152;1209;96810;-70
2024/02/29 09:21:26;;;;;;;30.90;12.80;;;;;;;6.10;89.95;101291.08;111077;1211;138976;-70
2024/02/29 09:23:51;;;;;;;29.90;12.90;;;;;;;6.15;90.02;101291.18;111182;1209;96128;-70
2024/02/29 09:26:18;;;;;;;25.60;10.50;;;;;;;6.19;90.03;101284.20;111153;1209;97647;-70
2024/02/29 09:28:44;;;;;;;25.80;10.80;;;;;;;6.25;89.94;101282.88;111072;1209;139299;-68
2024/02/29 09:31:11;;;;;;;31.10;11.80;;;;;;;6.29;89.98;101283.86;110851;1211;97776;-69
2024/02/29 09:33:37;;;;;;;27.40;11.60;;;;;;;6.33;90.00;101281.67;110830;1211;138907;-68
2024/02/29 09:36:21;;;;;;;31.90;11.40;;;;;;;6.35;89.93;101282.52;110869;1208;97559;-68
2024/02/29 09:38:46;;;;;;;90.20;36.10;;;;;;;6.38;90.07;101281.40;110927;1211;141602;-68
2024/02/29 09:41:12;;;;;;;39.00;17.00;;;;;;;6.38;90.10;101276.09;110916;1208;97549;-71
2024/02/29 09:43:40;;;;;;;34.50;15.60;;;;;;;6.42;89.98;101271.95;111093;1211;97683;-68
2024/02/29 09:46:09;;;;;;;28.90;12.50;;;;;;;6.48;90.14;101268.30;110891;1211;141305;-69
2024/02/29 09:48:38;;;;;;;30.70;13.70;;;;;;;6.54;90.20;101268.02;111125;1209;108125;-68
2024/02/29 09:51:04;;;;;;;35.60;13.30;;;;;;;6.59;90.22;101270.77;110938;1211;139589;-69
2024/02/29 09:53:30;;;;;;;30.50;13.70;;;;;;;6.63;90.35;101264.84;111075;1211;97604;-69
2024/02/29 09:55:57;;;;;;;33.90;13.30;;;;;;;6.68;90.25;101260.31;111221;1207;97811;-68
2024/02/29 09:58:25;;;;;;;37.20;17.70;;;;;;;6.72;90.23;101261.84;110981;1211;139459;-67
2024/02/29 10:00:50;;;;;;;45.50;20.70;;;;;;;6.74;90.18;101262.33;111103;1212;97566;-67
2024/02/29 10:03:17;;;;;;;48.50;23.20;;;;;;;6.75;90.27;101258.23;110857;1211;139000;-68
2024/02/29 10:05:48;;;;;;;39.80;18.60;;;;;;;6.78;90.34;101254.10;111150;1210;97613;-67
2024/02/29 10:08:14;;;;;;;34.00;14.30;;;;;;;6.79;90.21;101250.16;111005;1208;107839;-68
2024/02/29 10:10:39;;;;;;;36.00;15.10;;;;;;;6.81;90.27;101251.19;110776;1211;139210;-68
2024/02/29 10:13:08;;;;;;;34.20;15.40;;;;;;;6.83;90.33;101249.91;111080;1209;96969;-69
2024/02/29 10:15:33;;;;;;;38.10;15.90;;;;;;;6.86;90.33;101249.15;110800;1211;138868;-69
2024/02/29 10:17:59;;;;;;;36.70;15.80;;;;;;;6.89;90.31;101247.85;111069;1209;97568;-69
2024/02/29 10:20:26;;;;;;;40.30;16.10;;;;;;;6.94;90.41;101247.77;110971;1211;138879;-69
2024/02/29 10:22:54;;;;;;;43.50;16.40;;;;;;;6.97;90.49;101244.15;110960;1209;111585;-69
2024/02/29 10:25:23;;;;;;;44.30;16.30;;;;;;;7.00;90.30;101238.58;111000;1210;99970;-69
2024/02/29 10:27:49;;;;;;;38.00;15.50;;;;;;;7.02;90.49;101237.29;110910;1209;139536;-70
2024/02/29 10:30:16;;;;;;;37.30;15.80;;;;;;;7.05;90.48;101232.80;110774;1209;97577;-70
2024/02/29 10:32:43;;;;;;;44.30;16.60;;;;;;;7.10;90.43;101233.23;110833;1209;138661;-70
2024/02/29 10:35:26;;;;;;;34.80;15.90;;;;;;;7.15;90.61;101231.70;111055;1211;97611;-70
2024/02/29 10:37:54;;;;;;;46.10;20.00;;;;;;;7.22;90.62;101230.86;110740;1209;99590;-71
2024/02/29 10:40:21;;;;;;;45.30;19.00;;;;;;;7.26;90.68;101228.11;110765;1221;138710;-70
2024/02/29 10:42:55;;;;;;;40.20;18.60;;;;;;;7.31;90.55;101228.73;111097;1211;97674;-70
2024/02/29 10:45:22;;;;;;;38.40;16.30;;;;;;;7.33;90.50;101222.11;111016;1211;138654;-67
2024/02/29 10:48:12;;;;;;;38.20;17.30;;;;;;;7.36;90.63;101215.11;110935;1210;111008;-69
2024/02/29 10:50:47;;;;;;;35.70;16.20;;;;;;;7.39;90.61;101211.84;110824;1209;139667;-69
2024/02/29 10:53:42;;;;;;;42.50;18.10;;;;;;;7.40;90.55;101205.59;110727;1211;107799;-69
2024/02/29 10:56:21;;;;;;;40.10;16.80;;;;;;;7.40;90.55;101200.26;110894;1208;97571;-69
2024/02/29 10:58:59;;;;;;;39.30;17.10;;;;;;;7.43;90.64;101196.48;110875;1209;138426;-69
2024/02/29 11:01:26;;;;;;;41.60;17.20;;;;;;;7.45;90.61;101192.52;110981;1211;111402;-68
2024/02/29 11:03:52;;;;;;;39.10;16.70;;;;;;;7.49;90.66;101189.94;110948;1209;139200;-68